createdAt,value
2023-01-20T00:01:37.926Z,101246.38
2023-01-20T00:04:05.787Z,101247.22
2023-01-20T00:06:33.677Z,101248.03
2023-01-20T00:09:03.058Z,101257.63
2023-01-20T00:11:31.166Z,101247.09
2023-01-20T00:14:01.680Z,101251.59
2023-01-20T00:16:32.044Z,101240.31
2023-01-20T00:18:59.824Z,101252.53
2023-01-20T00:21:27.558Z,101225.63
2023-01-20T00:23:55.140Z,101230.06
2023-01-20T00:26:24.623Z,101224.06
2023-01-20T00:28:57.831Z,101222.34
2023-01-20T00:31:27.881Z,101223.19
2023-01-20T00:33:57.971Z,101218.00
2023-01-20T00:36:27.467Z,101226.00
2023-01-20T00:38:55.186Z,101226.84
2023-01-20T00:41:22.988Z,101217.19
2023-01-20T00:43:50.579Z,101217.34
2023-01-20T00:46:18.375Z,101223.38
2023-01-20T00:48:45.895Z,101219.06
2023-01-20T00:51:13.459Z,101222.47
2023-01-20T00:53:45.357Z,101218.13
2023-01-20T00:56:13.297Z,101218.13
2023-01-20T00:58:48.091Z,101210.38
2023-01-20T01:01:15.814Z,101221.59
2023-01-20T01:03:44.551Z,101217.28
2023-01-20T01:06:15.448Z,101210.31
2023-01-20T01:08:44.189Z,101223.38
2023-01-20T01:11:13.076Z,101221.59
2023-01-20T01:13:41.016Z,101226.88
2023-01-20T01:16:14.310Z,101226.84
2023-01-20T01:18:42.971Z,101225.03
2023-01-20T01:21:14.339Z,101218.13
2023-01-20T01:23:42.491Z,101212.00
2023-01-20T01:26:10.555Z,101211.19
2023-01-20T01:28:38.095Z,101209.41
2023-01-20T01:31:08.392Z,101218.13
2023-01-20T01:33:36.513Z,101225.13
2023-01-20T01:36:04.665Z,101212.03
2023-01-20T01:38:33.153Z,101212.03
2023-01-20T01:41:01.617Z,101207.66
2023-01-20T01:43:32.322Z,101206.75
2023-01-20T01:46:00.233Z,101218.84
2023-01-20T01:48:30.425Z,101226.72
2023-01-20T01:51:01.212Z,101223.25
2023-01-20T01:53:32.539Z,101208.38
2023-01-20T01:56:02.895Z,101218.72
2023-01-20T01:58:34.841Z,101221.38
2023-01-20T02:01:02.639Z,101218.81
2023-01-20T02:03:40.193Z,101223.19
2023-01-20T02:06:09.166Z,101217.16
2023-01-20T02:08:37.589Z,101218.13
2023-01-20T02:11:05.268Z,101222.47
2023-01-20T02:13:34.012Z,101215.56
2023-01-20T02:16:38.343Z,101209.41
2023-01-20T02:19:21.141Z,101219.84
2023-01-20T02:22:25.421Z,101207.59
2023-01-20T02:25:11.001Z,101207.56
2023-01-20T02:28:16.814Z,101202.38
2023-01-20T02:31:02.915Z,101214.66
2023-01-20T02:33:45.466Z,101218.31
2023-01-20T02:36:22.474Z,101206.13
2023-01-20T02:39:13.697Z,101204.34
2023-01-20T02:42:11.708Z,101179.81
2023-01-20T02:44:59.383Z,101198.06
2023-01-20T02:47:41.421Z,101204.22
2023-01-20T02:50:40.848Z,101217.44
2023-01-20T02:53:09.535Z,101215.72
2023-01-20T02:55:47.430Z,101212.34
2023-01-20T02:58:59.184Z,101219.22
2023-01-20T03:01:54.160Z,101215.66
2023-01-20T03:04:33.762Z,101211.19
2023-01-20T03:07:03.711Z,101209.41
2023-01-20T03:09:37.679Z,101209.31
2023-01-20T03:12:14.108Z,101218.03
2023-01-20T03:14:41.627Z,101209.41
2023-01-20T03:17:09.405Z,101206.75
2023-01-20T03:19:37.083Z,101217.22
2023-01-20T03:22:04.923Z,101207.50
2023-01-20T03:24:33.673Z,101213.56
2023-01-20T03:27:01.397Z,101208.38
2023-01-20T03:29:30.693Z,101211.00
2023-01-20T03:32:01.076Z,101216.28
2023-01-20T03:34:32.080Z,101213.78
2023-01-20T03:37:01.067Z,101221.69
2023-01-20T03:39:29.000Z,101227.78
2023-01-20T03:42:08.244Z,101229.59
2023-01-20T03:45:00.032Z,101236.66
2023-01-20T03:47:58.696Z,101235.00
2023-01-20T03:50:47.817Z,101229.78
2023-01-20T03:53:37.529Z,101229.78
2023-01-20T03:56:12.794Z,101231.56
2023-01-20T03:58:44.417Z,101225.53
2023-01-20T04:01:17.356Z,101226.47
2023-01-20T04:03:51.419Z,101227.41
2023-01-20T04:06:21.573Z,101222.31
2023-01-20T04:08:58.656Z,101218.03
2023-01-20T04:11:27.292Z,101224.13
2023-01-20T04:13:55.174Z,101225.03
2023-01-20T04:16:24.475Z,101214.56
2023-01-20T04:18:53.131Z,101224.25
2023-01-20T04:21:41.986Z,101211.19
2023-01-20T04:24:19.374Z,101223.41
2023-01-20T04:26:47.052Z,101225.97
2023-01-20T04:29:14.632Z,101220.00
2023-01-20T04:31:42.304Z,101227.13
2023-01-20T04:34:13.575Z,101224.47
2023-01-20T04:36:41.727Z,101228.06
2023-01-20T04:39:09.267Z,101217.66
2023-01-20T04:41:36.863Z,101218.56
2023-01-20T04:44:04.439Z,101236.97
2023-01-20T04:46:32.108Z,101236.19
2023-01-20T04:48:59.592Z,101246.63
2023-01-20T04:51:27.206Z,101227.50
2023-01-20T04:53:58.490Z,101227.59
2023-01-20T04:56:26.555Z,101230.25
2023-01-20T04:58:54.059Z,101238.09
2023-01-20T05:01:21.817Z,101242.56
2023-01-20T05:03:49.432Z,101235.56
2023-01-20T05:06:18.881Z,101232.13
2023-01-20T05:08:46.474Z,101240.00
2023-01-20T05:11:14.035Z,101241.78
2023-01-20T05:13:41.633Z,101246.09
2023-01-20T05:16:10.293Z,101242.63
2023-01-20T05:18:37.897Z,101265.25
2023-01-20T05:21:07.987Z,101253.97
2023-01-20T05:23:36.058Z,101251.41
2023-01-20T05:26:03.648Z,101267.09
2023-01-20T05:28:31.199Z,101277.53
2023-01-20T05:30:58.832Z,101263.53
2023-01-20T05:33:26.456Z,101273.06
2023-01-20T05:35:55.997Z,101266.09
2023-01-20T05:38:23.509Z,101283.53
2023-01-20T05:40:51.051Z,101273.94
2023-01-20T05:43:18.518Z,101279.13
2023-01-20T05:45:46.831Z,101279.09
2023-01-20T05:48:14.379Z,101280.03
2023-01-20T05:50:43.145Z,101297.34
2023-01-20T05:53:10.650Z,101303.53
2023-01-20T05:55:38.223Z,101300.03
2023-01-20T05:58:06.602Z,101305.34
2023-01-20T06:00:34.312Z,101310.56
2023-01-20T06:03:02.242Z,101307.03
2023-01-20T06:05:30.377Z,101303.50
2023-01-20T06:07:58.819Z,101309.56
2023-01-20T06:10:28.272Z,101322.66
2023-01-20T06:12:56.236Z,101331.34
2023-01-20T06:15:25.421Z,101314.78
2023-01-20T06:17:55.019Z,101325.16
2023-01-20T06:20:22.701Z,101325.19
2023-01-20T06:22:55.118Z,101341.72
2023-01-20T06:25:22.784Z,101337.31
2023-01-20T06:27:50.271Z,101343.31
2023-01-20T06:30:18.165Z,101344.13
2023-01-20T06:32:48.852Z,101336.22
2023-01-20T06:35:16.962Z,101341.50
2023-01-20T06:37:44.734Z,101346.69
2023-01-20T06:40:12.807Z,101354.66
2023-01-20T06:42:40.280Z,101357.94
2023-01-20T06:45:08.648Z,101348.41
2023-01-20T06:47:36.218Z,101355.34
2023-01-20T06:50:04.031Z,101345.78
2023-01-20T06:52:31.760Z,101351.13
2023-01-20T06:54:59.315Z,101350.19
2023-01-20T06:57:26.900Z,101353.66
2023-01-20T06:59:54.439Z,101354.53
2023-01-20T07:02:21.967Z,101348.47
2023-01-20T07:04:52.651Z,101350.19
2023-01-20T07:07:20.187Z,101349.22
2023-01-20T07:09:48.101Z,101341.38
2023-01-20T07:12:15.666Z,101350.91
2023-01-20T07:14:43.167Z,101343.88
2023-01-20T07:17:12.614Z,101349.09
2023-01-20T07:19:40.142Z,101340.34
2023-01-20T07:22:07.659Z,101349.91
2023-01-20T07:24:35.255Z,101340.44
2023-01-20T07:27:02.817Z,101345.47
2023-01-20T07:29:30.392Z,101351.47
2023-01-20T11:19:11.348Z,101216.44
2023-01-20T11:21:40.279Z,101221.91
2023-01-20T11:24:31.167Z,101220.13
2023-01-20T11:27:07.297Z,101218.69
2023-01-20T11:29:42.676Z,101215.66
2023-01-20T11:32:32.572Z,101213.94
2023-01-20T11:40:20.264Z,101218.63
2023-01-20T11:42:49.662Z,101213.41
2023-01-20T11:45:34.553Z,101211.59
2023-01-20T11:48:03.955Z,101211.28
2023-01-20T11:50:34.536Z,101211.34
2023-01-20T11:53:33.217Z,101217.28
2023-01-20T11:56:24.864Z,101219.03
2023-01-20T11:59:02.064Z,101212.47
2023-01-20T12:01:50.740Z,101214.84
2023-01-20T12:04:49.251Z,101215.50
2023-01-20T12:07:26.070Z,101222.78
2023-01-20T12:09:59.698Z,101214.78
2023-01-20T12:13:16.192Z,101217.53
2023-01-20T12:15:54.847Z,101210.38
2023-01-20T12:19:04.846Z,101214.94
2023-01-20T12:21:41.291Z,101211.78
2023-01-20T12:24:38.701Z,101225.47
2023-01-20T12:27:20.942Z,101225.28
2023-01-20T12:29:52.080Z,101211.84
2023-01-20T12:32:20.046Z,101212.53
2023-01-20T12:34:47.744Z,101211.50
2023-01-20T12:37:27.401Z,101215.53
2023-01-20T12:40:36.904Z,101218.22
2023-01-20T12:43:17.073Z,101210.44
2023-01-20T12:45:59.760Z,101202.69
2023-01-20T12:48:54.527Z,101193.44
2023-01-20T12:51:33.950Z,101203.31
2023-01-20T12:54:47.872Z,101204.94
2023-01-20T12:57:34.835Z,101201.44
2023-01-20T13:00:40.780Z,101200.91
2023-01-20T13:03:27.546Z,101210.06
2023-01-20T13:06:36.115Z,101208.09
2023-01-20T13:09:22.733Z,101219.47
2023-01-20T13:12:13.967Z,101218.81
2023-01-20T13:15:04.533Z,101224.47
2023-01-20T13:17:40.617Z,101219.34
2023-01-20T13:20:28.106Z,101223.13
2023-01-20T13:22:58.608Z,101223.06
2023-01-20T13:25:27.474Z,101220.44
2023-01-20T13:27:55.692Z,101202.78
2023-01-20T13:30:43.165Z,101204.00
2023-01-20T13:33:29.244Z,101220.66
2023-01-20T13:35:59.791Z,101223.75
2023-01-20T13:38:36.008Z,101217.81
2023-01-20T13:41:06.179Z,101231.88
2023-01-20T13:43:53.310Z,101232.03
2023-01-20T13:46:21.349Z,101222.78
2023-01-20T13:49:59.978Z,101223.94
2023-01-20T13:52:51.096Z,101228.72
2023-01-20T13:55:44.089Z,101229.72
2023-01-20T13:58:23.982Z,101229.16
2023-01-20T14:00:54.542Z,101223.34
2023-01-20T14:03:30.760Z,101225.34
2023-01-20T14:06:21.012Z,101221.16
2023-01-20T14:08:50.872Z,101213.44
2023-01-20T14:11:26.698Z,101214.50
2023-01-20T14:14:03.109Z,101220.84
2023-01-20T14:16:34.810Z,101219.06
2023-01-20T14:19:18.796Z,101216.59
2023-01-20T14:21:54.789Z,101225.34
2023-01-20T14:24:29.359Z,101220.25
2023-01-20T14:27:27.319Z,101224.00
2023-01-20T14:29:57.655Z,101220.75
2023-01-20T14:32:34.253Z,101222.88
2023-01-20T14:35:04.680Z,101227.28
2023-01-20T14:37:36.031Z,101230.00
2023-01-20T14:40:26.313Z,101234.53
2023-01-20T14:43:19.832Z,101230.28
2023-01-20T14:45:51.777Z,101232.13
2023-01-20T14:48:34.052Z,101240.09
2023-01-20T14:51:06.148Z,101238.50
2023-01-20T14:53:34.025Z,101239.38
2023-01-20T14:56:07.927Z,101235.22
2023-01-20T14:58:36.585Z,101238.84
2023-01-20T15:01:06.958Z,101246.72
2023-01-20T15:03:34.781Z,101234.69
2023-01-20T15:06:05.902Z,101240.06
2023-01-20T15:08:37.542Z,101244.56
2023-01-20T15:11:12.384Z,101242.94
2023-01-20T15:14:08.708Z,101250.00
2023-01-20T15:16:37.388Z,101250.88
2023-01-20T15:19:17.535Z,101246.63
2023-01-20T15:25:38.671Z,101248.38
2023-01-20T15:28:06.270Z,101252.94
2023-01-20T15:30:35.431Z,101252.03
2023-01-20T15:33:03.360Z,101254.69
2023-01-20T15:35:33.248Z,101253.84
2023-01-20T15:38:11.841Z,101248.75
2023-01-20T15:40:39.777Z,101260.09
2023-01-20T15:43:25.624Z,101264.50
2023-01-20T15:45:53.651Z,101270.56
2023-01-20T15:48:21.804Z,101268.09
2023-01-20T15:50:49.538Z,101276.00
2023-01-20T15:53:17.273Z,101274.31
2023-01-20T15:55:49.313Z,101278.69
2023-01-20T15:58:29.759Z,101283.13
2023-01-20T16:01:00.376Z,101283.13
2023-01-20T16:03:28.587Z,101288.34
2023-01-20T16:05:58.948Z,101291.88
2023-01-20T16:08:35.518Z,101280.56
2023-01-20T16:11:04.356Z,101280.63
2023-01-20T16:13:32.158Z,101278.09
2023-01-20T16:16:01.393Z,101285.94
2023-01-20T16:18:30.336Z,101290.38
2023-01-20T16:20:58.122Z,101285.06
2023-01-20T16:23:25.748Z,101286.81
2023-01-20T16:25:54.914Z,101292.97
2023-01-20T16:28:24.311Z,101283.44
2023-01-20T16:30:54.041Z,101289.53
2023-01-20T16:33:25.094Z,101281.56
2023-01-20T16:35:55.556Z,101285.97
2023-01-20T16:38:25.200Z,101272.06
2023-01-20T16:40:57.642Z,101276.50
2023-01-20T16:43:25.970Z,101278.34
2023-01-20T16:45:55.521Z,101271.34
2023-01-20T16:48:24.392Z,101276.63
2023-01-20T16:50:53.235Z,101270.59
2023-01-20T16:53:21.158Z,101261.16
2023-01-20T16:55:49.434Z,101275.97
2023-01-20T16:58:17.316Z,101275.09
2023-01-20T17:00:44.947Z,101264.75
2023-01-20T17:03:12.908Z,101258.56
2023-01-20T22:05:25.291Z,101223.75
2023-01-20T22:07:53.080Z,101216.81
2023-01-20T22:10:21.196Z,101222.00
2023-01-20T22:12:50.500Z,101220.28
2023-01-20T22:15:18.908Z,101216.84
2023-01-20T22:17:48.067Z,101222.13
2023-01-20T22:20:17.216Z,101216.84
2023-01-20T22:22:46.258Z,101215.13
2023-01-20T22:25:15.217Z,101215.13
2023-01-20T22:27:44.141Z,101211.69
2023-01-20T22:30:19.050Z,101211.66
2023-01-20T22:35:39.307Z,101225.56
2023-01-20T22:38:08.325Z,101229.97
2023-01-20T22:40:38.039Z,101223.09
2023-01-20T22:43:07.527Z,101217.88
2023-01-20T22:45:49.048Z,101224.88
2023-01-20T22:48:19.310Z,101219.69
2023-01-20T22:50:49.364Z,101222.31
2023-01-20T22:56:32.596Z,101217.13
2023-01-20T22:59:01.722Z,101210.19
2023-01-20T23:01:34.662Z,101220.63
2023-01-20T23:04:32.790Z,101219.84
2023-01-20T23:07:02.278Z,101218.91
2023-01-20T23:09:34.032Z,101214.63
2023-01-20T23:12:03.073Z,101228.59
2023-01-20T23:14:50.589Z,101231.22
2023-01-20T23:17:19.351Z,101227.72
2023-01-20T23:19:53.920Z,101222.50
2023-01-20T23:22:24.192Z,101239.03
2023-01-20T23:24:52.736Z,101233.81
2023-01-20T23:27:22.116Z,101245.16
2023-01-20T23:29:52.726Z,101238.22
2023-01-20T23:32:21.851Z,101250.41
2023-01-20T23:34:50.962Z,101252.09
2023-01-20T23:37:19.605Z,101244.28
2023-01-20T23:39:52.484Z,101242.56
2023-01-20T23:42:21.808Z,101245.22
2023-01-20T23:44:51.296Z,101241.75
2023-01-20T23:47:19.812Z,101238.31
2023-01-20T23:49:48.247Z,101233.97
2023-01-20T23:52:17.012Z,101232.28
2023-01-20T23:54:45.625Z,101228.81
2023-01-20T23:57:14.471Z,101226.22
2023-01-20T23:59:42.889Z,101236.63
